Time;durP1;ratioP1;P1;durP2;ratioP2;P2;SDS_P1;SDS_P2;PMS_P1;PMS_P2;Temp;Humidity;BMP_temperature;BMP_pressure;BME280_temperature;BME280_humidity;BME280_pressure;Samples;Min_cycle;Max_cycle;Signal;HPM_P1;HPM_P2
2022/12/23 00:02:17;;;;;;;5.57;4.55;;;;;;;;;;5134704;27;20374;-58
2022/12/23 00:04:43;;;;;;;6.40;5.00;;;;;;;;;;5132948;27;20064;-58
2022/12/23 00:07:09;;;;;;;4.85;4.07;;;;;;;;;;5132857;27;20039;-58
2022/12/23 00:09:35;;;;;;;5.63;4.20;;;;;;;;;;5136999;27;20694;-58
2022/12/23 00:15:04;;;;;;;4.63;3.85;;;;;;;;;;5140496;27;20050;-58
2022/12/23 00:17:31;;;;;;;5.25;3.72;;;;;;;;;;5137985;27;20047;-58
2022/12/23 00:19:57;;;;;;;5.82;4.35;;;;;;;;;;5140041;27;20103;-58
2022/12/23 00:23:03;;;;;;;5.70;4.50;;;;;;;;;;5139835;27;20051;-58
2022/12/23 00:25:09;;;;;;;4.65;3.70;;;;;;;;;;5137359;27;20076;-58
2022/12/23 00:27:35;;;;;;;6.68;4.75;;;;;;;;;;5141222;27;20054;-58
2022/12/23 00:30:01;;;;;;;4.72;3.88;;;;;;;;;;5132780;27;20043;-58
2022/12/23 00:32:27;;;;;;;5.30;3.90;;;;;;;;;;5133257;27;20073;-58
2022/12/23 00:34:53;;;;;;;5.63;4.25;;;;;;;;;;5140484;27;20070;-58
2022/12/23 00:37:19;;;;;;;5.72;4.53;;;;;;;;;;5133923;27;20030;-58
2022/12/23 00:45:14;;;;;;;5.35;4.18;;;;;;;;;;5138325;27;20047;-58
2022/12/23 00:50:26;;;;;;;6.05;5.28;;;;;;;;;;5135901;27;20047;-58
2022/12/23 00:52:52;;;;;;;7.80;6.03;;;;;;;;;;5136677;27;20047;-58
2022/12/23 00:55:18;;;;;;;7.25;5.50;;;;;;;;;;5136654;27;20505;-58
2022/12/23 00:57:44;;;;;;;7.05;5.68;;;;;;;;;;5136038;27;20038;-58
2022/12/23 01:00:11;;;;;;;8.15;6.47;;;;;;;;;;5133944;27;20066;-58
2022/12/23 01:05:38;;;;;;;6.18;4.85;;;;;;;;;;5133572;27;20051;-58
2022/12/23 01:08:04;;;;;;;5.28;4.60;;;;;;;;;;5131245;27;20054;-58
2022/12/23 01:10:30;;;;;;;8.27;5.93;;;;;;;;;;5133783;27;20050;-58
2022/12/23 01:12:56;;;;;;;7.38;5.05;;;;;;;;;;5131713;27;20510;-58
2022/12/23 01:15:22;;;;;;;8.32;5.90;;;;;;;;;;5133297;27;20039;-58
2022/12/23 01:17:48;;;;;;;6.85;4.47;;;;;;;;;;5132613;27;20508;-58
2022/12/23 01:20:14;;;;;;;6.32;5.28;;;;;;;;;;5133095;27;20047;-58
2022/12/23 01:22:40;;;;;;;5.63;4.50;;;;;;;;;;5132600;27;20043;-58
2022/12/23 01:25:06;;;;;;;7.53;4.55;;;;;;;;;;5132369;27;20502;-58
2022/12/23 01:27:32;;;;;;;6.70;4.70;;;;;;;;;;5135450;27;20043;-58
2022/12/23 01:29:58;;;;;;;4.75;4.03;;;;;;;;;;5134835;27;20046;-58
2022/12/23 01:32:24;;;;;;;6.75;4.85;;;;;;;;;;5141980;27;20035;-58
2022/12/23 01:34:50;;;;;;;5.15;4.40;;;;;;;;;;5143545;27;20119;-58
2022/12/23 01:37:16;;;;;;;8.23;5.85;;;;;;;;;;5140841;27;21067;-58
2022/12/23 01:39:42;;;;;;;7.15;4.50;;;;;;;;;;5142522;27;20134;-58
2022/12/23 01:45:02;;;;;;;8.70;6.65;;;;;;;;;;5139767;27;20088;-57
2022/12/23 01:47:28;;;;;;;7.72;5.15;;;;;;;;;;5138509;27;20039;-58
2022/12/23 01:49:59;;;;;;;6.15;4.55;;;;;;;;;;5134727;27;20409;-58
2022/12/23 01:52:26;;;;;;;5.03;3.80;;;;;;;;;;5138241;27;20039;-58
2022/12/23 01:54:52;;;;;;;6.60;4.97;;;;;;;;;;5135352;27;20493;-58
2022/12/23 01:57:18;;;;;;;5.97;4.82;;;;;;;;;;5135950;27;20131;-58
2022/12/23 02:05:16;;;;;;;8.07;6.22;;;;;;;;;;5135170;27;20051;-58
2022/12/23 02:10:31;;;;;;;9.98;7.43;;;;;;;;;;5134339;27;20047;-58
2022/12/23 02:12:57;;;;;;;8.20;5.93;;;;;;;;;;5139443;27;20457;-58
2022/12/23 02:18:26;;;;;;;7.45;5.57;;;;;;;;;;5134316;27;20126;-58
2022/12/23 02:21:11;;;;;;;7.35;5.75;;;;;;;;;;5134786;27;20043;-58
2022/12/23 02:23:37;;;;;;;6.30;5.13;;;;;;;;;;5134914;27;20421;-58
2022/12/23 02:26:15;;;;;;;7.40;4.80;;;;;;;;;;5131543;27;20046;-58
2022/12/23 02:29:00;;;;;;;6.05;4.75;;;;;;;;;;5136615;27;20130;-60
2022/12/23 02:31:37;;;;;;;7.20;4.75;;;;;;;;;;5139257;27;20034;-58
2022/12/23 02:34:06;;;;;;;7.15;5.13;;;;;;;;;;5138890;27;20070;-58
2022/12/23 02:36:43;;;;;;;7.03;5.07;;;;;;;;;;5140220;27;20456;-58
2022/12/23 02:39:21;;;;;;;6.18;4.40;;;;;;;;;;5137897;27;20069;-60
2022/12/23 02:42:20;;;;;;;7.07;4.90;;;;;;;;;;5138245;27;20082;-58
2022/12/23 02:44:58;;;;;;;8.73;6.43;;;;;;;;;;5091362;27;20051;-58
2022/12/23 02:47:27;;;;;;;10.50;7.22;;;;;;;;;;5135396;27;20078;-58
2022/12/23 02:49:56;;;;;;;12.38;8.50;;;;;;;;;;5142217;27;20049;-58
2022/12/23 02:52:26;;;;;;;10.55;7.25;;;;;;;;;;5139873;27;20043;-60
2022/12/23 02:54:53;;;;;;;11.75;8.52;;;;;;;;;;5141389;27;20149;-58
2022/12/23 02:57:22;;;;;;;11.73;7.28;;;;;;;;;;5138953;27;20537;-58
2022/12/23 02:59:50;;;;;;;9.50;7.03;;;;;;;;;;5140821;27;20109;-59
2022/12/23 03:02:16;;;;;;;9.27;6.63;;;;;;;;;;5139905;27;20134;-59
2022/12/23 03:04:42;;;;;;;11.68;7.78;;;;;;;;;;5140474;27;20676;-58
2022/12/23 03:07:17;;;;;;;10.57;7.53;;;;;;;;;;5140024;27;20042;-58
2022/12/23 03:09:51;;;;;;;8.75;6.28;;;;;;;;;;5137627;27;20374;-59
2022/12/23 03:12:24;;;;;;;10.98;8.00;;;;;;;;;;5135276;27;20047;-58
2022/12/23 03:14:54;;;;;;;10.15;6.55;;;;;;;;;;5115204;27;20087;-58
2022/12/23 03:17:20;;;;;;;8.48;6.18;;;;;;;;;;5134925;27;20047;-59
2022/12/23 03:19:55;;;;;;;10.43;6.72;;;;;;;;;;5135076;27;20058;-59
2022/12/23 03:22:28;;;;;;;10.07;6.60;;;;;;;;;;5137533;27;20560;-58
2022/12/23 03:24:59;;;;;;;7.97;5.60;;;;;;;;;;5137511;27;20068;-59
2022/12/23 03:27:34;;;;;;;7.00;5.20;;;;;;;;;;5135804;27;20039;-58
2022/12/23 03:30:04;;;;;;;10.35;6.95;;;;;;;;;;5137095;27;20073;-57
2022/12/23 03:32:33;;;;;;;10.50;6.95;;;;;;;;;;5135019;27;20100;-58
2022/12/23 03:35:00;;;;;;;8.23;6.20;;;;;;;;;;5134306;27;20043;-59
2022/12/23 03:37:27;;;;;;;7.53;5.22;;;;;;;;;;5136255;27;20051;-59
2022/12/23 03:39:56;;;;;;;7.15;4.90;;;;;;;;;;5137151;27;20080;-58
2022/12/23 03:42:24;;;;;;;9.75;6.65;;;;;;;;;;5137614;27;20088;-59
2022/12/23 03:44:50;;;;;;;9.10;5.85;;;;;;;;;;5140895;27;20073;-59
2022/12/23 03:47:19;;;;;;;9.65;5.88;;;;;;;;;;5137424;27;20045;-59
2022/12/23 03:50:08;;;;;;;6.85;5.53;;;;;;;;;;5138825;27;20814;-58
2022/12/23 03:52:43;;;;;;;7.65;5.15;;;;;;;;;;5125955;27;20516;-59
2022/12/23 03:55:12;;;;;;;9.18;5.93;;;;;;;;;;5139407;27;20052;-59
2022/12/23 03:57:42;;;;;;;7.97;5.13;;;;;;;;;;5136082;27;20043;-59
2022/12/23 04:00:08;;;;;;;8.35;6.05;;;;;;;;;;5133615;27;20054;-58
2022/12/23 04:02:37;;;;;;;8.15;5.32;;;;;;;;;;5135564;27;20050;-58
2022/12/23 04:05:10;;;;;;;6.25;4.78;;;;;;;;;;5132216;27;20039;-59
2022/12/23 04:07:41;;;;;;;5.95;4.38;;;;;;;;;;5140755;27;20096;-58
2022/12/23 04:10:07;;;;;;;6.38;4.80;;;;;;;;;;5138375;27;20098;-59
2022/12/23 04:12:34;;;;;;;5.25;3.92;;;;;;;;;;5138178;27;20505;-59
2022/12/23 04:15:00;;;;;;;5.50;3.92;;;;;;;;;;5140229;27;20046;-59
2022/12/23 04:17:26;;;;;;;6.45;4.00;;;;;;;;;;5137349;27;20046;-58
2022/12/23 04:19:52;;;;;;;5.10;3.75;;;;;;;;;;5140072;27;20075;-58
2022/12/23 04:22:18;;;;;;;5.20;3.90;;;;;;;;;;5138236;27;20126;-59
2022/12/23 04:24:44;;;;;;;5.32;3.42;;;;;;;;;;5138755;27;20127;-59
2022/12/23 04:27:12;;;;;;;4.72;3.35;;;;;;;;;;5139046;27;20042;-58
2022/12/23 04:29:38;;;;;;;5.40;3.80;;;;;;;;;;5141210;27;20476;-59
2022/12/23 04:32:04;;;;;;;5.72;4.05;;;;;;;;;;5138430;27;20489;-58
2022/12/23 04:34:30;;;;;;;4.35;3.35;;;;;;;;;;5139847;27;20051;-59
2022/12/23 04:36:56;;;;;;;4.68;3.72;;;;;;;;;;5132377;27;20527;-58
2022/12/23 04:39:22;;;;;;;4.63;3.28;;;;;;;;;;5133242;27;20054;-58
2022/12/23 04:41:48;;;;;;;5.95;3.60;;;;;;;;;;5133363;27;20089;-59
2022/12/23 04:44:14;;;;;;;3.83;3.28;;;;;;;;;;5132788;27;20467;-59
2022/12/23 04:46:41;;;;;;;5.25;3.38;;;;;;;;;;5133667;27;20038;-58
2022/12/23 04:49:07;;;;;;;3.35;2.70;;;;;;;;;;5132797;27;20075;-59
2022/12/23 04:51:33;;;;;;;4.90;3.38;;;;;;;;;;5134243;27;20070;-58
2022/12/23 04:53:59;;;;;;;6.05;4.68;;;;;;;;;;5131045;27;20459;-58
2022/12/23 04:56:25;;;;;;;5.32;4.18;;;;;;;;;;5134585;27;20121;-59
2022/12/23 04:58:51;;;;;;;5.60;4.28;;;;;;;;;;5132777;27;20065;-59
2022/12/23 05:01:17;;;;;;;5.25;3.63;;;;;;;;;;5132483;27;20384;-59
2022/12/23 05:03:43;;;;;;;6.50;4.18;;;;;;;;;;5137759;27;20045;-58
2022/12/23 05:06:09;;;;;;;5.10;3.72;;;;;;;;;;5136470;27;20054;-58
2022/12/23 05:08:35;;;;;;;4.40;3.42;;;;;;;;;;5138490;27;20043;-58
2022/12/23 05:11:01;;;;;;;5.65;4.38;;;;;;;;;;5136189;27;20051;-58
2022/12/23 05:13:27;;;;;;;5.65;4.28;;;;;;;;;;5137401;27;20446;-58
2022/12/23 05:15:54;;;;;;;4.63;3.67;;;;;;;;;;5136484;27;20039;-58
2022/12/23 05:18:20;;;;;;;5.07;3.90;;;;;;;;;;5137034;27;20054;-59
2022/12/23 05:20:46;;;;;;;4.97;3.63;;;;;;;;;;5139611;27;20050;-58
2022/12/23 05:23:12;;;;;;;6.85;4.43;;;;;;;;;;5142096;27;20043;-59
2022/12/23 05:25:38;;;;;;;4.82;4.13;;;;;;;;;;5140657;27;20607;-58
2022/12/23 05:28:06;;;;;;;6.63;4.43;;;;;;;;;;5133235;27;20043;-58
2022/12/23 05:30:32;;;;;;;5.78;4.47;;;;;;;;;;5142618;27;20078;-59
2022/12/23 05:32:58;;;;;;;6.88;5.07;;;;;;;;;;5143865;27;20034;-59
2022/12/23 05:35:25;;;;;;;6.57;4.57;;;;;;;;;;5140338;27;20047;-58
2022/12/23 05:37:53;;;;;;;9.02;6.60;;;;;;;;;;5142926;27;20074;-58
2022/12/23 05:40:19;;;;;;;7.18;4.60;;;;;;;;;;5141660;27;20076;-59
2022/12/23 05:42:45;;;;;;;5.47;4.38;;;;;;;;;;5141498;27;20096;-58
2022/12/23 05:45:11;;;;;;;6.80;5.43;;;;;;;;;;5141966;27;20389;-58
2022/12/23 05:47:37;;;;;;;9.15;5.70;;;;;;;;;;5141441;27;20058;-58
2022/12/23 05:50:03;;;;;;;10.48;6.80;;;;;;;;;;5142061;27;20042;-59
2022/12/23 05:52:29;;;;;;;11.15;6.53;;;;;;;;;;5140682;27;20046;-59
2022/12/23 05:54:55;;;;;;;11.93;7.90;;;;;;;;;;5138893;27;20035;-58
2022/12/23 05:57:21;;;;;;;16.90;9.43;;;;;;;;;;5135503;27;20277;-58
2022/12/23 05:59:47;;;;;;;10.10;6.53;;;;;;;;;;5137126;27;20030;-58
2022/12/23 06:02:13;;;;;;;10.32;6.88;;;;;;;;;;5135334;27;20084;-59
2022/12/23 06:04:39;;;;;;;7.05;5.20;;;;;;;;;;5136997;27;20039;-59
2022/12/23 06:07:06;;;;;;;8.18;5.05;;;;;;;;;;5135069;27;20045;-59
2022/12/23 06:09:32;;;;;;;5.63;4.20;;;;;;;;;;5136478;27;20051;-59
2022/12/23 06:11:58;;;;;;;6.43;4.63;;;;;;;;;;5139043;27;20410;-58
2022/12/23 06:14:25;;;;;;;6.95;4.68;;;;;;;;;;5137330;27;20074;-59
2022/12/23 06:16:51;;;;;;;4.95;3.33;;;;;;;;;;5141376;27;20070;-58
2022/12/23 06:19:17;;;;;;;4.63;3.60;;;;;;;;;;5141133;27;20714;-58
2022/12/23 06:21:43;;;;;;;6.32;4.28;;;;;;;;;;5138761;27;20046;-59
2022/12/23 06:24:10;;;;;;;4.25;3.45;;;;;;;;;;5134226;27;20061;-58
2022/12/23 06:26:36;;;;;;;4.80;3.53;;;;;;;;;;5139500;27;20121;-59
2022/12/23 06:29:02;;;;;;;3.45;2.90;;;;;;;;;;5142291;27;20050;-58
2022/12/23 06:31:28;;;;;;;4.22;2.78;;;;;;;;;;5136898;27;20161;-58
2022/12/23 06:33:54;;;;;;;4.50;2.88;;;;;;;;;;5146280;27;20118;-59
2022/12/23 06:36:20;;;;;;;4.07;2.97;;;;;;;;;;5140774;27;20051;-60
2022/12/23 06:38:46;;;;;;;4.55;4.03;;;;;;;;;;5149858;27;20507;-59
2022/12/23 06:41:12;;;;;;;4.35;3.10;;;;;;;;;;5141079;27;20042;-57
2022/12/23 06:43:38;;;;;;;4.78;3.20;;;;;;;;;;5142429;27;20045;-58
2022/12/23 06:46:04;;;;;;;3.78;2.75;;;;;;;;;;5140739;27;20504;-59
2022/12/23 06:48:30;;;;;;;3.05;2.65;;;;;;;;;;5136929;27;21101;-59
2022/12/23 06:50:56;;;;;;;3.70;3.13;;;;;;;;;;5134237;27;20046;-59
2022/12/23 06:53:22;;;;;;;3.28;2.97;;;;;;;;;;5134244;27;20051;-58
2022/12/23 06:55:48;;;;;;;3.50;2.88;;;;;;;;;;5135893;27;20404;-59
2022/12/23 06:58:14;;;;;;;4.55;4.05;;;;;;;;;;5140474;27;20047;-58
2022/12/23 07:00:40;;;;;;;4.25;3.65;;;;;;;;;;5133384;27;20035;-59
2022/12/23 07:03:06;;;;;;;5.57;4.82;;;;;;;;;;5134418;27;20447;-59
2022/12/23 07:05:33;;;;;;;4.35;3.67;;;;;;;;;;5135811;27;20054;-58
2022/12/23 07:07:59;;;;;;;5.70;4.53;;;;;;;;;;5137535;27;20425;-58
2022/12/23 07:10:25;;;;;;;6.78;5.05;;;;;;;;;;5137298;27;20102;-59
2022/12/23 07:12:51;;;;;;;5.13;4.45;;;;;;;;;;5133862;27;20415;-58
2022/12/23 07:15:17;;;;;;;5.80;4.47;;;;;;;;;;5133981;27;20047;-58
2022/12/23 07:17:43;;;;;;;6.18;4.70;;;;;;;;;;5135408;27;20038;-58
2022/12/23 07:20:11;;;;;;;6.28;4.60;;;;;;;;;;5133211;27;20490;-58
2022/12/23 07:22:37;;;;;;;6.63;5.05;;;;;;;;;;5135762;27;20089;-59
2022/12/23 07:25:03;;;;;;;5.15;4.05;;;;;;;;;;5132920;27;20062;-58
2022/12/23 07:27:29;;;;;;;5.13;3.85;;;;;;;;;;5134807;27;20051;-58
2022/12/23 07:29:55;;;;;;;4.50;3.35;;;;;;;;;;5133654;27;20031;-58
2022/12/23 07:32:21;;;;;;;5.25;3.15;;;;;;;;;;5133878;27;20039;-58
2022/12/23 07:34:47;;;;;;;3.42;2.60;;;;;;;;;;5134376;27;20082;-58
2022/12/23 07:37:13;;;;;;;2.80;2.50;;;;;;;;;;5133527;27;20046;-59
2022/12/23 07:39:39;;;;;;;3.45;2.72;;;;;;;;;;5135793;27;20147;-58
2022/12/23 07:42:05;;;;;;;3.60;2.50;;;;;;;;;;5140245;27;20169;-58
2022/12/23 07:44:31;;;;;;;4.22;3.10;;;;;;;;;;5138566;27;20043;-59
2022/12/23 07:46:57;;;;;;;3.08;2.58;;;;;;;;;;5137267;27;20104;-58
2022/12/23 07:49:23;;;;;;;3.28;2.58;;;;;;;;;;5133252;27;20068;-58
2022/12/23 07:51:49;;;;;;;3.70;2.65;;;;;;;;;;5135018;27;20049;-58
2022/12/23 07:54:15;;;;;;;4.18;3.20;;;;;;;;;;5139754;27;20061;-59
2022/12/23 07:56:41;;;;;;;3.70;2.97;;;;;;;;;;5140238;27;20092;-59
2022/12/23 07:59:07;;;;;;;4.93;3.78;;;;;;;;;;5136238;27;20047;-59
2022/12/23 08:01:33;;;;;;;5.38;3.33;;;;;;;;;;5140636;27;20039;-59
2022/12/23 08:03:59;;;;;;;4.88;3.38;;;;;;;;;;5130117;27;20073;-58
2022/12/23 08:06:25;;;;;;;3.88;2.90;;;;;;;;;;5139004;27;20401;-58
2022/12/23 08:08:51;;;;;;;4.55;2.63;;;;;;;;;;5127740;27;20061;-58
2022/12/23 08:11:17;;;;;;;3.05;2.63;;;;;;;;;;5127252;27;20130;-59
2022/12/23 08:13:44;;;;;;;3.08;1.88;;;;;;;;;;5138672;27;20393;-58
2022/12/23 08:16:11;;;;;;;2.20;2.00;;;;;;;;;;5135228;27;20461;-59
2022/12/23 08:18:38;;;;;;;2.80;2.17;;;;;;;;;;5140009;27;20045;-59
2022/12/23 08:21:05;;;;;;;3.22;2.47;;;;;;;;;;5136687;27;20051;-59
2022/12/23 08:23:32;;;;;;;3.25;2.10;;;;;;;;;;5143598;27;20039;-58
2022/12/23 08:26:08;;;;;;;2.70;1.80;;;;;;;;;;5148241;27;20039;-58
2022/12/23 08:28:35;;;;;;;2.20;1.50;;;;;;;;;;5148027;27;20126;-58
2022/12/23 08:31:18;;;;;;;3.22;1.65;;;;;;;;;;5147470;27;20046;-59
2022/12/23 08:33:46;;;;;;;2.20;1.95;;;;;;;;;;5148598;27;20062;-58
2022/12/23 08:36:13;;;;;;;2.42;1.73;;;;;;;;;;5146879;27;20102;-58
2022/12/23 08:38:39;;;;;;;1.92;1.33;;;;;;;;;;5138784;27;20134;-58
2022/12/23 08:41:09;;;;;;;2.10;1.35;;;;;;;;;;5143352;27;20053;-57
2022/12/23 08:43:35;;;;;;;2.65;1.75;;;;;;;;;;5117864;27;20396;-59
2022/12/23 08:46:01;;;;;;;2.80;2.00;;;;;;;;;;5137730;27;20130;-58
2022/12/23 08:48:27;;;;;;;2.80;1.95;;;;;;;;;;5147813;27;20098;-60
2022/12/23 08:50:53;;;;;;;3.58;2.38;;;;;;;;;;5148019;27;20054;-59
2022/12/23 08:53:19;;;;;;;3.08;2.33;;;;;;;;;;5146680;27;20046;-57
2022/12/23 08:55:46;;;;;;;3.08;2.13;;;;;;;;;;5141265;27;20109;-59
2022/12/23 08:58:13;;;;;;;3.60;2.53;;;;;;;;;;5125793;27;20378;-58
2022/12/23 09:00:39;;;;;;;4.18;2.80;;;;;;;;;;5126619;28;20039;-58
2022/12/23 09:03:05;;;;;;;3.05;2.08;;;;;;;;;;5129099;27;20046;-59
2022/12/23 09:05:32;;;;;;;2.67;2.03;;;;;;;;;;5136177;27;20521;-59
2022/12/23 09:07:58;;;;;;;2.45;2.00;;;;;;;;;;5129792;27;20050;-58
2022/12/23 09:10:24;;;;;;;3.90;2.55;;;;;;;;;;5125456;28;20055;-58
2022/12/23 09:12:51;;;;;;;3.05;2.30;;;;;;;;;;5125193;28;20039;-58
2022/12/23 09:15:17;;;;;;;2.08;1.48;;;;;;;;;;5125940;28;20043;-58
2022/12/23 09:17:43;;;;;;;1.95;1.63;;;;;;;;;;5127339;27;20039;-57
2022/12/23 09:20:10;;;;;;;1.55;1.33;;;;;;;;;;5129907;27;20122;-57
2022/12/23 09:22:36;;;;;;;2.03;1.60;;;;;;;;;;5132475;27;20046;-53
2022/12/23 09:25:02;;;;;;;2.40;1.70;;;;;;;;;;5134788;27;20042;-53
2022/12/23 09:27:28;;;;;;;1.98;1.50;;;;;;;;;;5127620;27;20371;-58
2022/12/23 09:29:54;;;;;;;2.15;1.70;;;;;;;;;;5137430;27;20047;-56
2022/12/23 09:32:20;;;;;;;2.45;1.88;;;;;;;;;;5116072;28;20079;-57
2022/12/23 09:34:46;;;;;;;3.75;2.38;;;;;;;;;;5124947;27;20669;-57
2022/12/23 09:37:15;;;;;;;2.17;1.83;;;;;;;;;;5125043;28;20168;-57
2022/12/23 09:39:41;;;;;;;1.90;1.55;;;;;;;;;;5125647;28;20493;-57
2022/12/23 09:42:22;;;;;;;2.90;1.95;;;;;;;;;;5125074;28;20039;-57
2022/12/23 09:45:00;;;;;;;2.05;1.85;;;;;;;;;;5126108;28;20046;-58
2022/12/23 09:47:26;;;;;;;2.47;1.80;;;;;;;;;;5125421;27;20039;-58
2022/12/23 09:49:54;;;;;;;2.45;1.75;;;;;;;;;;5127721;27;20031;-58
2022/12/23 09:52:39;;;;;;;3.30;2.67;;;;;;;;;;5129267;27;20054;-56
2022/12/23 09:55:08;;;;;;;2.70;2.13;;;;;;;;;;5128943;27;20512;-58
2022/12/23 09:57:55;;;;;;;3.03;2.42;;;;;;;;;;5129537;27;20054;-57
2022/12/23 10:00:21;;;;;;;2.47;2.00;;;;;;;;;;5129051;27;20087;-56
2022/12/23 10:02:56;;;;;;;2.40;2.08;;;;;;;;;;5128863;27;20050;-57
2022/12/23 10:05:28;;;;;;;3.88;3.08;;;;;;;;;;5129075;27;20053;-57
2022/12/23 10:07:58;;;;;;;5.80;3.70;;;;;;;;;;5129495;27;20116;-57
2022/12/23 10:10:27;;;;;;;4.93;3.25;;;;;;;;;;5128402;27;20063;-57
2022/12/23 10:12:53;;;;;;;4.40;2.95;;;;;;;;;;5129139;27;20577;-57
2022/12/23 10:15:22;;;;;;;5.38;3.78;;;;;;;;;;5128942;27;20042;-57
2022/12/23 10:17:50;;;;;;;6.05;4.38;;;;;;;;;;5128690;27;20046;-57
2022/12/23 10:20:19;;;;;;;7.35;5.38;;;;;;;;;;5128845;27;20547;-57
2022/12/23 10:22:46;;;;;;;11.65;7.13;;;;;;;;;;5128535;27;20043;-56
2022/12/23 10:25:28;;;;;;;9.95;6.72;;;;;;;;;;5128609;27;20036;-57
2022/12/23 10:27:54;;;;;;;9.45;7.07;;;;;;;;;;5128863;27;20677;-57
2022/12/23 10:30:22;;;;;;;13.77;7.53;;;;;;;;;;5127988;27;20043;-57
2022/12/23 10:33:14;;;;;;;11.40;7.38;;;;;;;;;;5129260;27;20046;-57
2022/12/23 10:35:53;;;;;;;11.63;7.20;;;;;;;;;;5128862;27;20049;-57
2022/12/23 10:38:19;;;;;;;8.73;6.43;;;;;;;;;;5127776;27;20287;-57
2022/12/23 10:40:48;;;;;;;7.43;5.53;;;;;;;;;;5128822;27;20040;-56
2022/12/23 10:43:31;;;;;;;6.28;3.97;;;;;;;;;;5128485;27;20439;-57
2022/12/23 10:46:16;;;;;;;6.32;4.47;;;;;;;;;;5127986;27;20400;-56
2022/12/23 10:49:08;;;;;;;7.32;4.72;;;;;;;;;;5128753;27;20039;-57
2022/12/23 10:51:41;;;;;;;5.68;4.22;;;;;;;;;;5123902;27;20082;-57
2022/12/23 10:54:34;;;;;;;5.05;3.80;;;;;;;;;;5128665;27;20055;-57
2022/12/23 10:57:00;;;;;;;6.35;4.82;;;;;;;;;;5124486;27;20138;-57
2022/12/23 10:59:27;;;;;;;6.03;4.60;;;;;;;;;;5126669;27;20117;-57
2022/12/23 11:01:57;;;;;;;8.80;6.35;;;;;;;;;;5128061;27;20039;-56
2022/12/23 11:04:30;;;;;;;6.70;5.03;;;;;;;;;;5127648;27;20047;-56
2022/12/23 11:06:56;;;;;;;6.30;4.78;;;;;;;;;;5127410;27;20046;-57
2022/12/23 11:09:24;;;;;;;5.20;4.20;;;;;;;;;;5127533;27;20134;-57
2022/12/23 11:11:56;;;;;;;5.53;4.03;;;;;;;;;;5128137;27;20131;-56
2022/12/23 11:14:33;;;;;;;4.97;3.72;;;;;;;;;;5127687;27;20039;-56
2022/12/23 11:16:59;;;;;;;5.53;3.80;;;;;;;;;;5128441;27;20043;-56
2022/12/23 11:19:25;;;;;;;6.03;4.00;;;;;;;;;;5127278;27;20043;-56
2022/12/23 11:21:59;;;;;;;5.75;4.38;;;;;;;;;;5128119;27;20046;-56
2022/12/23 11:24:32;;;;;;;4.05;3.15;;;;;;;;;;5127693;27;20035;-56
2022/12/23 11:27:02;;;;;;;4.30;3.17;;;;;;;;;;5127141;27;20044;-56
2022/12/23 11:29:33;;;;;;;2.83;2.40;;;;;;;;;;5127499;27;20046;-56
2022/12/23 11:32:01;;;;;;;3.15;2.75;;;;;;;;;;5127575;27;20121;-56
2022/12/23 11:34:30;;;;;;;5.07;3.72;;;;;;;;;;5126725;27;20123;-56
2022/12/23 11:36:58;;;;;;;5.38;3.92;;;;;;;;;;5127639;27;20519;-57
2022/12/23 11:39:28;;;;;;;4.15;3.22;;;;;;;;;;5127110;27;20565;-56
2022/12/23 11:42:01;;;;;;;2.33;2.13;;;;;;;;;;5126839;27;20071;-56
2022/12/23 11:44:32;;;;;;;5.47;4.20;;;;;;;;;;5127064;27;20039;-57
2022/12/23 11:47:16;;;;;;;5.00;3.63;;;;;;;;;;5127614;27;20051;-56
2022/12/23 11:49:49;;;;;;;5.03;4.10;;;;;;;;;;5127406;27;20092;-56
2022/12/23 11:52:17;;;;;;;6.72;4.68;;;;;;;;;;5127203;27;20054;-57
2022/12/23 11:54:49;;;;;;;5.65;4.40;;;;;;;;;;5126212;27;20516;-57
2022/12/23 11:57:16;;;;;;;5.05;3.97;;;;;;;;;;5127517;27;20040;-56
2022/12/23 11:59:44;;;;;;;5.28;4.65;;;;;;;;;;5127302;27;20065;-56
2022/12/23 12:02:46;;;;;;;5.13;4.05;;;;;;;;;;5125990;27;20047;-56
2022/12/23 12:05:24;;;;;;;7.85;5.35;;;;;;;;;;5042952;28;20060;-56
2022/12/23 12:07:51;;;;;;;4.85;3.97;;;;;;;;;;5117883;27;20112;-56
2022/12/23 12:10:20;;;;;;;5.85;4.53;;;;;;;;;;5128609;27;20059;-56
2022/12/23 12:12:48;;;;;;;5.50;4.15;;;;;;;;;;5129019;27;20413;-56
2022/12/23 12:15:33;;;;;;;4.70;4.18;;;;;;;;;;5128656;27;20585;-56
2022/12/23 12:18:00;;;;;;;4.53;3.78;;;;;;;;;;5139292;27;20198;-56
2022/12/23 12:20:40;;;;;;;6.00;4.40;;;;;;;;;;5126604;27;20089;-57
2022/12/23 12:23:12;;;;;;;5.53;4.60;;;;;;;;;;5126404;27;20130;-57
2022/12/23 12:25:47;;;;;;;5.25;4.75;;;;;;;;;;5127073;27;20043;-57
2022/12/23 12:28:14;;;;;;;6.30;5.32;;;;;;;;;;5126206;27;20046;-57
2022/12/23 12:30:50;;;;;;;6.35;4.60;;;;;;;;;;5126321;27;20404;-57
2022/12/23 12:33:21;;;;;;;6.18;5.15;;;;;;;;;;5126405;28;20458;-58
2022/12/23 12:35:48;;;;;;;6.63;5.25;;;;;;;;;;5126631;28;20124;-58
2022/12/23 12:38:31;;;;;;;7.60;6.22;;;;;;;;;;5126029;28;20218;-57
2022/12/23 12:41:00;;;;;;;6.70;5.55;;;;;;;;;;5126784;28;20054;-57
2022/12/23 12:43:28;;;;;;;6.82;4.47;;;;;;;;;;5125296;28;20489;-57
2022/12/23 12:46:03;;;;;;;6.75;4.97;;;;;;;;;;5126967;28;20051;-57
2022/12/23 12:48:48;;;;;;;6.38;4.70;;;;;;;;;;5126233;28;20405;-58
2022/12/23 12:51:17;;;;;;;4.85;4.25;;;;;;;;;;5125221;28;20490;-57
2022/12/23 12:54:03;;;;;;;4.53;3.90;;;;;;;;;;5126821;28;20404;-57
2022/12/23 12:56:33;;;;;;;4.80;3.78;;;;;;;;;;5125657;28;20134;-57
2022/12/23 12:58:59;;;;;;;3.95;3.30;;;;;;;;;;5125710;28;20077;-57
2022/12/23 13:01:51;;;;;;;4.03;3.63;;;;;;;;;;5126032;28;20082;-57
2022/12/23 13:04:20;;;;;;;5.20;4.07;;;;;;;;;;5123027;28;20058;-57
2022/12/23 13:06:52;;;;;;;6.15;4.93;;;;;;;;;;5125929;28;20058;-57
2022/12/23 13:09:22;;;;;;;4.53;3.60;;;;;;;;;;5125737;28;20145;-57
2022/12/23 13:11:54;;;;;;;5.07;3.60;;;;;;;;;;5126019;28;20693;-57
2022/12/23 13:14:20;;;;;;;;;;;;;;;;;;5126281;28;20486;-57
2022/12/23 13:17:01;;;;;;;4.63;3.35;;;;;;;;;;5126419;28;19929;-58
2022/12/23 13:19:33;;;;;;;6.10;4.75;;;;;;;;;;5124993;28;20035;-57
2022/12/23 13:22:08;;;;;;;4.05;3.50;;;;;;;;;;5126261;27;20400;-57
2022/12/23 13:24:43;;;;;;;6.03;4.38;;;;;;;;;;5130202;27;20050;-58
2022/12/23 13:27:18;;;;;;;4.70;3.70;;;;;;;;;;5129305;27;20054;-58
2022/12/23 13:29:55;;;;;;;5.95;4.72;;;;;;;;;;5130281;27;20082;-57
2022/12/23 13:32:44;;;;;;;5.88;4.85;;;;;;;;;;5129862;27;20047;-57
2022/12/23 13:35:10;;;;;;;6.55;4.68;;;;;;;;;;5121121;27;20062;-57
2022/12/23 13:37:55;;;;;;;6.47;5.00;;;;;;;;;;5130247;27;20498;-57
2022/12/23 13:40:24;;;;;;;7.25;5.00;;;;;;;;;;5129058;27;20047;-58
2022/12/23 13:42:54;;;;;;;6.65;5.07;;;;;;;;;;5129601;27;20070;-57
2022/12/23 13:45:21;;;;;;;7.15;6.03;;;;;;;;;;5129418;27;20039;-57
2022/12/23 13:47:55;;;;;;;7.72;5.38;;;;;;;;;;5129140;27;20047;-57
2022/12/23 13:50:49;;;;;;;8.38;5.43;;;;;;;;;;5129565;27;20119;-57
2022/12/23 13:53:35;;;;;;;5.25;4.45;;;;;;;;;;5105915;27;20623;-57
2022/12/23 13:56:01;;;;;;;6.78;4.78;;;;;;;;;;5129093;27;20051;-57
2022/12/23 13:58:30;;;;;;;7.40;4.43;;;;;;;;;;5129323;27;20045;-57
2022/12/23 14:01:19;;;;;;;5.82;4.10;;;;;;;;;;5128798;27;20489;-58
2022/12/23 14:03:47;;;;;;;6.43;5.10;;;;;;;;;;5101785;27;20092;-57
2022/12/23 14:06:21;;;;;;;4.55;3.97;;;;;;;;;;5131793;27;20035;-57
2022/12/23 14:08:47;;;;;;;7.10;5.07;;;;;;;;;;5131994;27;20439;-57
2022/12/23 14:11:13;;;;;;;7.85;4.88;;;;;;;;;;5138356;27;20400;-57
2022/12/23 14:14:06;;;;;;;7.18;5.55;;;;;;;;;;5137250;27;20043;-58
2022/12/23 14:16:38;;;;;;;8.60;6.20;;;;;;;;;;5136930;27;20054;-57
2022/12/23 14:19:23;;;;;;;8.88;7.50;;;;;;;;;;5141803;27;20130;-57
2022/12/23 14:21:51;;;;;;;12.77;8.10;;;;;;;;;;5133311;27;20161;-57
2022/12/23 14:24:24;;;;;;;9.65;7.65;;;;;;;;;;5140962;27;20067;-58
2022/12/23 14:27:08;;;;;;;9.57;6.45;;;;;;;;;;5150798;27;20042;-57
2022/12/23 14:29:49;;;;;;;9.30;7.38;;;;;;;;;;5149907;27;20107;-57
2022/12/23 14:32:20;;;;;;;11.02;8.02;;;;;;;;;;5131742;27;20815;-57
2022/12/23 14:35:15;;;;;;;12.68;7.70;;;;;;;;;;5128355;27;20047;-58
2022/12/23 14:37:41;;;;;;;10.18;7.43;;;;;;;;;;5132312;27;20073;-57
2022/12/23 14:40:26;;;;;;;12.85;8.05;;;;;;;;;;5136681;27;20054;-57
2022/12/23 14:43:12;;;;;;;11.52;7.70;;;;;;;;;;5132585;27;20513;-57
2022/12/23 14:45:43;;;;;;;13.68;8.13;;;;;;;;;;5138517;27;20042;-57
2022/12/23 14:48:28;;;;;;;13.25;8.77;;;;;;;;;;5135428;27;20278;-57
2022/12/23 14:51:00;;;;;;;14.48;9.10;;;;;;;;;;5131898;27;20047;-58
2022/12/23 14:53:31;;;;;;;12.00;8.15;;;;;;;;;;5133420;27;20102;-57
2022/12/23 14:56:09;;;;;;;12.20;9.15;;;;;;;;;;5127924;27;20110;-57
2022/12/23 14:58:51;;;;;;;10.50;7.78;;;;;;;;;;5111799;27;20417;-57
2022/12/23 15:01:26;;;;;;;11.27;7.68;;;;;;;;;;5128835;27;20047;-57
2022/12/23 15:03:52;;;;;;;13.77;10.18;;;;;;;;;;5128036;27;20042;-57
2022/12/23 15:06:25;;;;;;;11.75;8.70;;;;;;;;;;5126614;27;20039;-57
2022/12/23 15:08:52;;;;;;;12.60;7.97;;;;;;;;;;5128048;27;20317;-57
2022/12/23 15:11:39;;;;;;;13.25;8.82;;;;;;;;;;5132489;27;20549;-57
2022/12/23 15:14:10;;;;;;;14.15;8.88;;;;;;;;;;5134462;27;20038;-57
2022/12/23 15:16:38;;;;;;;14.15;10.68;;;;;;;;;;5133474;27;20039;-57
2022/12/23 15:19:19;;;;;;;15.82;10.38;;;;;;;;;;5129182;27;20528;-57
2022/12/23 15:21:45;;;;;;;16.17;10.45;;;;;;;;;;5133026;27;20168;-57
2022/12/23 15:24:15;;;;;;;15.65;9.10;;;;;;;;;;5130604;27;20117;-57
2022/12/23 15:26:43;;;;;;;16.73;10.32;;;;;;;;;;5131979;27;20031;-57